createdAt,value
2018-08-27T00:00:37.830Z,54.70
2018-08-27T00:01:37.966Z,54.50
2018-08-27T00:02:38.104Z,54.50
2018-08-27T00:03:38.236Z,55.36
2018-08-27T00:04:38.373Z,55.46
2018-08-27T00:05:38.587Z,55.36
2018-08-27T00:06:38.592Z,55.36
2018-08-27T00:07:38.736Z,55.36
2018-08-27T00:08:38.873Z,55.65
2018-08-27T00:09:39.014Z,55.75
2018-08-27T00:10:39.152Z,56.23
2018-08-27T00:11:39.286Z,56.23
2018-08-27T00:12:39.427Z,55.75
2018-08-27T00:13:39.561Z,55.36
2018-08-27T00:14:39.691Z,56.30
2018-08-27T00:15:39.817Z,55.91
2018-08-27T00:16:39.950Z,56.10
2018-08-27T00:17:40.087Z,56.20
2018-08-27T00:18:40.227Z,55.82
2018-08-27T00:19:40.365Z,55.36
2018-08-27T00:20:40.509Z,55.53
2018-08-27T00:21:40.643Z,55.56
2018-08-27T00:22:40.797Z,55.36
2018-08-27T00:23:40.932Z,55.53
2018-08-27T00:24:41.077Z,55.65
2018-08-27T00:25:41.207Z,55.75
2018-08-27T00:26:41.344Z,55.53
2018-08-27T00:27:41.483Z,55.27
2018-08-27T00:28:41.644Z,55.46
2018-08-27T00:29:41.786Z,55.75
2018-08-27T00:30:41.927Z,56.23
2018-08-27T00:31:42.087Z,56.32
2018-08-27T00:32:42.216Z,56.32
2018-08-27T00:33:42.354Z,55.94
2018-08-27T00:34:42.494Z,56.42
2018-08-27T00:35:42.693Z,55.85
2018-08-27T00:36:42.829Z,56.23
2018-08-27T00:37:42.966Z,55.94
2018-08-27T00:38:43.106Z,55.18
2018-08-27T00:39:43.260Z,55.91
2018-08-27T00:40:43.411Z,56.10
2018-08-27T00:41:43.557Z,56.20
2018-08-27T00:42:43.689Z,56.42
2018-08-27T00:43:43.904Z,56.30
2018-08-27T00:44:43.918Z,56.39
2018-08-27T00:45:44.052Z,56.59
2018-08-27T00:46:44.207Z,56.68
2018-08-27T00:47:44.328Z,56.49
2018-08-27T00:48:44.471Z,56.39
2018-08-27T00:49:44.606Z,56.20
2018-08-27T00:50:44.769Z,56.49
2018-08-27T00:51:44.893Z,56.49
2018-08-27T00:52:45.051Z,56.20
2018-08-27T00:53:45.192Z,56.49
2018-08-27T00:54:45.318Z,57.26
2018-08-27T00:55:45.482Z,57.45
2018-08-27T00:56:45.688Z,57.26
2018-08-27T00:57:45.815Z,57.45
2018-08-27T00:58:46.029Z,57.54
2018-08-27T00:59:46.035Z,57.92
2018-08-27T01:00:46.164Z,57.83
2018-08-27T01:01:46.295Z,57.83
2018-08-27T01:02:46.491Z,57.92
2018-08-27T01:03:46.631Z,57.73
2018-08-27T01:04:46.764Z,58.02
2018-08-27T01:05:46.898Z,58.12
2018-08-27T01:06:47.035Z,58.31
2018-08-27T01:07:47.174Z,57.64
2018-08-27T01:08:47.310Z,57.54
2018-08-27T01:09:47.449Z,57.35
2018-08-27T01:10:47.587Z,57.45
2018-08-27T01:11:47.721Z,57.06
2018-08-27T01:12:47.855Z,57.35
2018-08-27T01:13:47.997Z,57.54
2018-08-27T01:14:48.129Z,57.45
2018-08-27T01:15:48.266Z,57.26
2018-08-27T01:16:48.403Z,57.16
2018-08-27T01:17:48.538Z,57.35
2018-08-27T01:18:48.694Z,57.83
2018-08-27T01:19:48.835Z,57.73
2018-08-27T01:20:48.998Z,57.83
2018-08-27T01:21:49.126Z,57.83
2018-08-27T01:22:49.272Z,57.45
2018-08-27T01:23:49.408Z,57.54
2018-08-27T01:24:49.542Z,57.45
2018-08-27T01:25:49.673Z,57.54
2018-08-27T01:26:49.811Z,57.16
2018-08-27T01:27:49.947Z,57.54
2018-08-27T01:28:50.084Z,57.06
2018-08-27T01:29:50.231Z,57.45
2018-08-27T01:30:50.366Z,57.16
2018-08-27T01:31:50.508Z,57.35
2018-08-27T01:32:50.641Z,57.64
2018-08-27T01:33:50.777Z,57.35
2018-08-27T01:34:50.923Z,57.64
2018-08-27T01:35:51.063Z,57.73
2018-08-27T01:36:51.212Z,57.92
2018-08-27T01:37:51.341Z,57.64
2018-08-27T01:38:51.491Z,58.12
2018-08-27T01:39:51.625Z,58.12
2018-08-27T01:40:51.787Z,58.22
2018-08-27T01:41:51.943Z,58.12
2018-08-27T01:42:52.061Z,58.40
2018-08-27T01:43:52.201Z,58.31
2018-08-27T01:44:52.412Z,58.31
2018-08-27T01:45:52.538Z,58.31
2018-08-27T01:46:52.675Z,58.31
2018-08-27T01:47:52.828Z,58.12
2018-08-27T01:48:52.962Z,58.31
2018-08-27T01:49:53.157Z,58.40
2018-08-27T01:50:53.233Z,58.12
2018-08-27T01:51:53.420Z,58.40
2018-08-27T01:52:53.566Z,58.22
2018-08-27T01:53:53.703Z,58.40
2018-08-27T01:54:53.868Z,58.69
2018-08-27T01:55:54.042Z,58.79
2018-08-27T01:56:54.177Z,58.69
2018-08-27T01:57:54.315Z,58.50
2018-08-27T01:58:54.446Z,58.31
2018-08-27T01:59:54.588Z,58.40
2018-08-27T02:00:54.717Z,58.98
2018-08-27T02:01:54.865Z,58.31
2018-08-27T02:02:54.999Z,58.59
2018-08-27T02:03:55.132Z,58.69
2018-08-27T02:04:56.158Z,58.31
2018-08-27T02:05:55.461Z,58.50
2018-08-27T02:06:55.595Z,58.50
2018-08-27T02:07:55.726Z,58.50
2018-08-27T02:08:55.857Z,58.31
2018-08-27T02:09:55.998Z,58.40
2018-08-27T02:10:56.132Z,58.69
2018-08-27T02:11:56.265Z,59.08
2018-08-27T02:12:56.399Z,58.98
2018-08-27T02:13:56.548Z,58.98
2018-08-27T02:14:56.668Z,58.50
2018-08-27T02:15:56.809Z,58.50
2018-08-27T02:16:56.956Z,58.31
2018-08-27T02:17:57.128Z,58.59
2018-08-27T02:18:57.256Z,58.98
2018-08-27T02:19:57.412Z,59.08
2018-08-27T02:20:57.551Z,59.45
2018-08-27T02:21:57.691Z,59.75
2018-08-27T02:22:57.825Z,60.32
2018-08-27T02:23:57.958Z,60.32
2018-08-27T02:24:58.093Z,60.51
2018-08-27T02:25:58.249Z,59.84
2018-08-27T02:26:58.374Z,60.41
2018-08-27T02:27:58.506Z,60.32
2018-08-27T02:28:58.651Z,59.55
2018-08-27T02:29:58.782Z,59.27
2018-08-27T02:30:58.921Z,59.65
2018-08-27T02:31:59.055Z,59.45
2018-08-27T02:32:59.196Z,59.75
2018-08-27T02:33:59.331Z,59.84
2018-08-27T02:34:59.497Z,58.88
2018-08-27T02:35:59.602Z,58.98
2018-08-27T02:36:59.738Z,59.55
2018-08-27T02:37:59.903Z,59.75
2018-08-27T02:39:00.035Z,59.45
2018-08-27T02:40:00.169Z,59.45
2018-08-27T02:41:00.304Z,59.84
2018-08-27T02:42:00.462Z,59.75
2018-08-27T02:43:00.603Z,59.84
2018-08-27T02:44:00.746Z,59.45
2018-08-27T02:45:00.891Z,59.45
2018-08-27T02:46:01.019Z,59.75
2018-08-27T02:47:01.155Z,59.08
2018-08-27T02:48:01.287Z,59.45
2018-08-27T02:49:01.425Z,58.79
2018-08-27T02:51:33.782Z,59.84
2018-08-27T02:52:33.926Z,59.36
2018-08-27T02:53:34.072Z,58.88
2018-08-27T02:54:34.207Z,58.69
2018-08-27T02:55:34.346Z,58.69
2018-08-27T02:56:34.501Z,59.17
2018-08-27T02:57:34.634Z,58.98
2018-08-27T02:58:34.769Z,58.59
2018-08-27T02:59:34.903Z,58.59
2018-08-27T03:00:35.049Z,58.22
2018-08-27T03:01:35.181Z,57.64
2018-08-27T03:02:35.324Z,57.92
2018-08-27T03:03:35.457Z,58.12
2018-08-27T03:04:35.608Z,58.31
2018-08-27T03:05:35.739Z,58.50
2018-08-27T03:06:35.901Z,58.12
2018-08-27T03:07:36.035Z,58.50
2018-08-27T03:08:36.172Z,58.12
2018-08-27T03:09:36.378Z,58.79
2018-08-27T03:10:36.489Z,58.59
2018-08-27T03:11:36.620Z,58.12
2018-08-27T03:12:36.770Z,58.40
2018-08-27T03:13:36.916Z,58.22
2018-08-27T03:14:37.048Z,57.92
2018-08-27T03:15:37.194Z,58.22
2018-08-27T03:16:37.329Z,58.31
2018-08-27T03:17:37.489Z,58.22
2018-08-27T03:18:37.630Z,59.27
2018-08-27T03:19:37.817Z,59.45
2018-08-27T03:20:37.833Z,58.91
2018-08-27T03:21:37.969Z,58.79
2018-08-27T03:22:38.101Z,59.36
2018-08-27T03:23:38.311Z,60.03
2018-08-27T03:24:38.357Z,59.94
2018-08-27T03:25:38.491Z,60.51
2018-08-27T03:26:38.631Z,61.28
2018-08-27T03:27:38.777Z,60.70
2018-08-27T03:28:38.913Z,60.51
2018-08-27T03:29:39.041Z,60.70
2018-08-27T03:30:39.207Z,61.66
2018-08-27T03:31:39.331Z,61.76
2018-08-27T03:32:39.475Z,61.47
2018-08-27T03:33:39.613Z,60.99
2018-08-27T03:34:39.779Z,60.51
2018-08-27T03:35:39.912Z,60.32
2018-08-27T03:36:40.046Z,59.75
2018-08-27T03:37:40.181Z,60.70
2018-08-27T03:38:40.325Z,61.66
2018-08-27T03:39:40.464Z,61.08
2018-08-27T03:40:40.695Z,60.51
2018-08-27T03:41:40.789Z,60.70
2018-08-27T03:42:40.924Z,61.28
2018-08-27T03:43:41.068Z,61.18
2018-08-27T03:44:41.197Z,61.28
2018-08-27T03:45:41.330Z,61.50
2018-08-27T03:46:41.469Z,61.31
2018-08-27T03:47:41.606Z,61.47
2018-08-27T03:48:41.845Z,60.03
2018-08-27T03:49:41.883Z,59.45
2018-08-27T03:50:42.023Z,58.88
2018-08-27T03:51:42.172Z,58.98
2018-08-27T03:52:42.302Z,59.08
2018-08-27T03:53:42.434Z,58.88
2018-08-27T03:54:42.568Z,58.69
2018-08-27T03:55:42.711Z,58.98
2018-08-27T03:56:42.853Z,58.98
2018-08-27T03:57:43.086Z,58.88
2018-08-27T03:58:43.099Z,58.69
2018-08-27T03:59:43.244Z,58.12
2018-08-27T04:00:43.405Z,58.53
2018-08-27T04:01:43.548Z,58.88
2018-08-27T04:02:43.678Z,58.59
2018-08-27T04:03:43.815Z,58.59
2018-08-27T04:04:43.949Z,58.69
2018-08-27T04:05:44.084Z,58.88
2018-08-27T04:06:44.233Z,58.50
2018-08-27T04:07:44.356Z,57.73
2018-08-27T04:08:44.490Z,57.92
2018-08-27T04:09:44.628Z,58.12
2018-08-27T04:10:44.767Z,57.06
2018-08-27T04:11:44.900Z,57.26
2018-08-27T04:12:45.051Z,57.35
2018-08-27T04:13:45.185Z,57.26
2018-08-27T04:14:45.320Z,57.54
2018-08-27T04:15:45.454Z,57.35
2018-08-27T04:16:45.668Z,57.45
2018-08-27T04:17:45.672Z,56.77
2018-08-27T04:18:45.816Z,55.73
2018-08-27T04:19:45.999Z,56.10
2018-08-27T04:20:46.130Z,55.82
2018-08-27T04:21:46.266Z,55.53
2018-08-27T04:22:46.401Z,54.99
2018-08-27T04:23:46.562Z,54.79
2018-08-27T04:24:46.675Z,54.99
2018-08-27T04:25:46.812Z,54.60
2018-08-27T04:26:46.951Z,54.79
2018-08-27T04:27:47.112Z,55.08
2018-08-27T04:28:47.260Z,54.12
2018-08-27T04:29:47.370Z,54.50
2018-08-27T04:30:47.519Z,54.22
2018-08-27T04:31:47.651Z,54.22
2018-08-27T04:32:47.784Z,53.83
2018-08-27T04:33:47.918Z,53.45
2018-08-27T04:34:48.105Z,53.45
2018-08-27T04:35:48.235Z,53.07
2018-08-27T04:36:48.365Z,52.50
2018-08-27T04:37:48.509Z,52.78
2018-08-27T04:38:48.642Z,52.50
2018-08-27T04:39:48.778Z,52.50
2018-08-27T04:40:48.919Z,52.69
2018-08-27T04:41:49.071Z,52.30
2018-08-27T04:42:49.204Z,52.59
2018-08-27T04:43:49.342Z,52.69
2018-08-27T04:44:49.479Z,52.30
2018-08-27T04:45:49.652Z,52.59
2018-08-27T04:46:49.792Z,52.59
2018-08-27T04:47:49.964Z,52.81
2018-08-27T04:48:50.064Z,52.71
2018-08-27T04:49:50.203Z,53.19
2018-08-27T04:50:50.336Z,53.67
2018-08-27T04:51:50.499Z,53.67
2018-08-27T04:52:50.714Z,53.45
2018-08-27T04:53:50.731Z,53.74
2018-08-27T04:54:50.872Z,52.87
2018-08-27T04:55:51.040Z,52.87
2018-08-27T04:56:51.816Z,53.07
2018-08-27T04:57:51.350Z,52.30
2018-08-27T04:58:51.528Z,52.59
2018-08-27T04:59:51.660Z,52.59
2018-08-27T05:00:51.810Z,52.40
2018-08-27T05:01:52.009Z,51.65
2018-08-27T05:02:52.106Z,52.11
2018-08-27T05:03:52.237Z,52.14
2018-08-27T05:04:52.377Z,52.33
2018-08-27T05:05:52.513Z,52.04
2018-08-27T05:06:52.649Z,52.23
2018-08-27T05:07:52.784Z,52.04
2018-08-27T05:08:52.921Z,52.71
2018-08-27T05:09:53.057Z,52.52
2018-08-27T05:10:53.191Z,52.52
2018-08-27T05:11:53.327Z,52.42
2018-08-27T05:12:53.462Z,51.95
2018-08-27T05:13:53.602Z,52.04
2018-08-27T05:14:53.742Z,52.62
2018-08-27T05:15:53.888Z,52.62
2018-08-27T05:16:54.023Z,52.52
2018-08-27T05:17:54.162Z,52.71
2018-08-27T05:18:54.299Z,52.91
2018-08-27T05:19:54.430Z,52.62
2018-08-27T05:20:54.571Z,52.71
2018-08-27T05:21:54.706Z,52.81
2018-08-27T05:22:54.848Z,52.42
2018-08-27T05:23:54.981Z,52.91
2018-08-27T05:24:55.126Z,53.09
2018-08-27T05:25:55.257Z,53.19
2018-08-27T05:26:55.397Z,53.38
2018-08-27T05:27:55.532Z,53.38
2018-08-27T05:28:55.667Z,53.38
2018-08-27T05:29:55.803Z,53.77
2018-08-27T05:30:56.018Z,54.34
2018-08-27T05:31:56.083Z,53.93
2018-08-27T05:32:56.219Z,54.44
2018-08-27T05:33:56.350Z,54.05
2018-08-27T05:34:56.487Z,54.63
2018-08-27T05:35:56.623Z,55.85
2018-08-27T05:36:56.770Z,56.26
2018-08-27T05:37:56.906Z,55.94
2018-08-27T05:38:57.040Z,57.38
2018-08-27T05:39:57.183Z,57.57
2018-08-27T05:40:57.319Z,57.95
2018-08-27T05:41:57.457Z,57.89
2018-08-27T05:42:57.585Z,58.24
2018-08-27T05:43:58.311Z,58.72
2018-08-27T05:44:57.830Z,59.11
2018-08-27T05:45:57.966Z,59.58
2018-08-27T05:46:58.104Z,59.58
2018-08-27T05:47:58.242Z,60.44
2018-08-27T05:48:58.388Z,59.87
2018-08-27T05:49:58.548Z,59.97
2018-08-27T05:50:58.780Z,60.35
2018-08-27T05:51:58.791Z,59.97
2018-08-27T05:52:58.925Z,60.06
2018-08-27T05:53:59.078Z,59.97
2018-08-27T05:54:59.219Z,59.68
2018-08-27T05:55:59.360Z,59.30
2018-08-27T05:56:59.493Z,59.20
2018-08-27T05:57:59.635Z,59.11
2018-08-27T05:58:59.766Z,59.01
2018-08-27T05:59:59.905Z,58.65
2018-08-27T06:01:00.040Z,58.75
2018-08-27T06:02:00.267Z,58.37
2018-08-27T06:03:00.315Z,58.56
2018-08-27T06:04:00.456Z,58.75
2018-08-27T06:05:00.594Z,58.75
2018-08-27T06:06:00.723Z,59.13
2018-08-27T06:07:00.864Z,58.94
2018-08-27T06:08:01.000Z,59.23
2018-08-27T06:09:01.193Z,58.84
2018-08-27T06:10:01.290Z,58.56
2018-08-27T06:11:01.501Z,58.75
2018-08-27T06:12:01.574Z,58.37
2018-08-27T06:13:01.707Z,58.75
2018-08-27T06:14:01.841Z,58.84
2018-08-27T06:15:02.004Z,58.46
2018-08-27T06:16:02.191Z,59.23
2018-08-27T06:17:02.299Z,58.94
2018-08-27T06:18:02.407Z,58.94
2018-08-27T06:19:02.562Z,59.04
2018-08-27T06:20:02.766Z,58.84
2018-08-27T06:21:02.777Z,58.84
2018-08-27T06:22:02.924Z,58.84
2018-08-27T06:23:03.056Z,59.13
2018-08-27T06:24:03.717Z,59.23
2018-08-27T06:25:03.516Z,58.94
2018-08-27T06:26:03.624Z,59.36
2018-08-27T06:27:03.638Z,58.97
2018-08-27T06:28:03.772Z,59.36
2018-08-27T06:29:03.927Z,59.26
2018-08-27T06:30:04.058Z,58.87
2018-08-27T06:31:04.193Z,58.78
2018-08-27T06:32:04.326Z,58.59
2018-08-27T06:33:04.489Z,59.16
2018-08-27T06:34:04.697Z,58.78
2018-08-27T06:35:04.719Z,59.06
2018-08-27T06:36:04.849Z,59.16
2018-08-27T06:37:04.988Z,59.16
2018-08-27T06:38:05.216Z,58.69
2018-08-27T06:39:05.271Z,58.59
2018-08-27T06:40:05.403Z,58.59
2018-08-27T06:41:06.378Z,58.39
2018-08-27T06:42:05.625Z,58.39
2018-08-27T06:43:05.762Z,58.30
2018-08-27T06:44:05.895Z,58.20
2018-08-27T06:45:06.066Z,58.59
2018-08-27T06:46:06.339Z,58.39
2018-08-27T06:47:06.335Z,58.11
2018-08-27T06:48:06.467Z,57.82
2018-08-27T06:49:06.615Z,58.49
2018-08-27T06:50:06.751Z,58.49
2018-08-27T06:51:06.887Z,57.34
2018-08-27T06:52:07.031Z,57.43
2018-08-27T06:53:07.183Z,57.08
2018-08-27T06:54:07.315Z,57.53
2018-08-27T06:55:07.455Z,57.56
2018-08-27T06:56:07.592Z,57.28
2018-08-27T06:57:07.731Z,57.18
2018-08-27T06:58:07.868Z,57.65
2018-08-27T06:59:08.001Z,56.98
2018-08-27T07:00:08.137Z,56.51
2018-08-27T07:01:08.298Z,56.22
2018-08-27T07:02:08.443Z,56.51
2018-08-27T07:03:08.579Z,56.41
2018-08-27T07:04:08.709Z,55.64
2018-08-27T07:05:08.861Z,55.26
2018-08-27T07:06:08.991Z,55.07
2018-08-27T07:07:09.126Z,54.97
2018-08-27T07:08:09.269Z,55.83
2018-08-27T07:09:09.412Z,55.26
2018-08-27T07:10:09.650Z,55.64
2018-08-27T07:11:09.669Z,56.02
2018-08-27T07:12:09.801Z,55.90
2018-08-27T07:13:09.936Z,55.52
2018-08-27T07:14:10.068Z,56.31
2018-08-27T07:15:10.207Z,55.64
2018-08-27T07:16:10.346Z,55.93
2018-08-27T07:17:10.486Z,56.22
2018-08-27T07:18:10.619Z,56.22
2018-08-27T07:19:10.759Z,56.41
2018-08-27T07:20:10.919Z,56.60
2018-08-27T07:21:11.026Z,56.89
2018-08-27T07:22:11.160Z,56.79
2018-08-27T07:23:11.295Z,57.28
2018-08-27T07:24:11.433Z,56.60
2018-08-27T07:25:11.573Z,56.51
2018-08-27T07:26:11.702Z,56.41
2018-08-27T07:27:11.837Z,56.79
2018-08-27T07:28:11.978Z,56.60
2018-08-27T07:29:12.113Z,56.79
2018-08-27T07:30:12.248Z,57.37
2018-08-27T07:31:12.390Z,56.79
2018-08-27T07:32:12.526Z,57.28
2018-08-27T07:33:12.665Z,57.08
2018-08-27T07:34:12.803Z,57.28
2018-08-27T07:35:12.961Z,57.56
2018-08-27T07:36:13.152Z,57.50
2018-08-27T07:37:13.221Z,57.18
2018-08-27T07:38:13.360Z,57.37
2018-08-27T07:39:13.498Z,57.30
2018-08-27T07:40:13.644Z,57.18
2018-08-27T07:41:13.767Z,57.68
2018-08-27T07:42:13.905Z,57.21
2018-08-27T07:43:14.043Z,57.11
2018-08-27T07:44:14.184Z,57.59
2018-08-27T07:45:14.319Z,57.97
2018-08-27T07:46:14.464Z,58.55
2018-08-27T07:47:14.603Z,58.42
2018-08-27T07:48:14.741Z,59.03
2018-08-27T07:49:14.880Z,59.51
2018-08-27T07:50:15.019Z,59.41
2018-08-27T07:51:15.275Z,59.03
2018-08-27T07:52:15.293Z,59.03
2018-08-27T07:53:15.431Z,59.22
2018-08-27T07:54:15.580Z,58.64
2018-08-27T07:55:15.755Z,59.12
2018-08-27T07:56:15.935Z,59.51
2018-08-27T07:57:16.053Z,59.99
2018-08-27T07:58:16.194Z,59.61
2018-08-27T07:59:16.332Z,59.51
2018-08-27T08:00:16.490Z,59.22
2018-08-27T08:01:16.626Z,58.74
2018-08-27T08:02:16.763Z,59.03
2018-08-27T08:03:16.905Z,59.12
2018-08-27T08:04:17.065Z,59.03
2018-08-27T08:05:17.192Z,59.22
2018-08-27T08:06:17.339Z,59.12
2018-08-27T08:07:17.624Z,59.12
2018-08-27T08:08:17.652Z,59.41
2018-08-27T08:09:17.786Z,59.22
2018-08-27T08:10:17.934Z,59.70
2018-08-27T08:11:18.077Z,59.12
2018-08-27T08:12:18.218Z,59.34
2018-08-27T08:13:18.351Z,59.16
2018-08-27T08:14:18.509Z,59.16
2018-08-27T08:15:18.644Z,59.06
2018-08-27T08:16:18.781Z,58.94
2018-08-27T08:17:18.952Z,59.51
2018-08-27T08:18:19.085Z,60.02
2018-08-27T08:19:19.224Z,60.47
2018-08-27T08:20:19.364Z,60.08
2018-08-27T08:21:19.508Z,60.08
2018-08-27T08:22:19.639Z,60.18
2018-08-27T08:23:19.773Z,60.85
2018-08-27T08:24:19.913Z,60.69
2018-08-27T08:25:20.079Z,60.95
2018-08-27T08:26:20.213Z,61.24
2018-08-27T08:27:20.359Z,61.33
2018-08-27T08:28:20.519Z,61.43
2018-08-27T08:29:20.649Z,61.62
2018-08-27T08:30:20.785Z,61.94
2018-08-27T08:31:20.919Z,61.94
2018-08-27T08:32:21.091Z,61.75
2018-08-27T08:33:21.385Z,61.46
2018-08-27T08:34:21.360Z,61.55
2018-08-27T08:35:21.499Z,61.94
2018-08-27T08:36:21.652Z,63.19
2018-08-27T08:37:21.784Z,63.25
2018-08-27T08:38:21.924Z,64.40
2018-08-27T08:39:22.072Z,65.17
2018-08-27T08:40:22.251Z,65.56
2018-08-27T08:41:22.441Z,66.33
2018-08-27T08:42:22.576Z,66.42
2018-08-27T08:43:22.715Z,66.90
2018-08-27T08:44:22.879Z,67.00
2018-08-27T08:45:23.016Z,67.09
2018-08-27T08:46:23.157Z,67.29
2018-08-27T08:47:23.293Z,66.90
2018-08-27T08:48:23.454Z,67.16
2018-08-27T08:49:23.590Z,67.25
2018-08-27T08:50:23.724Z,68.30
2018-08-27T08:51:23.862Z,69.84
2018-08-27T08:52:24.037Z,69.56
2018-08-27T08:53:24.209Z,69.84
2018-08-27T08:54:24.340Z,69.84
2018-08-27T08:55:24.481Z,70.42
2018-08-27T08:56:24.641Z,70.76
2018-08-27T08:57:24.781Z,71.63
2018-08-27T08:58:24.919Z,72.97
2018-08-27T08:59:25.058Z,74.60
2018-08-27T09:00:25.232Z,75.37
2018-08-27T09:01:25.459Z,75.65
2018-08-27T09:02:25.452Z,76.71
2018-08-27T09:03:25.591Z,77.38
2018-08-27T09:04:25.741Z,78.40
2018-08-27T09:05:25.873Z,78.97
2018-08-27T09:06:26.090Z,80.12
2018-08-27T09:07:26.196Z,80.51
2018-08-27T09:08:26.374Z,81.13
2018-08-27T09:09:26.495Z,81.04
2018-08-27T09:10:26.627Z,82.09
2018-08-27T09:11:26.762Z,81.81
2018-08-27T09:12:26.905Z,81.81
2018-08-27T09:13:27.055Z,82.48
2018-08-27T09:14:27.188Z,82.57
2018-08-27T09:15:27.328Z,82.76
2018-08-27T09:16:27.527Z,83.63
2018-08-27T09:17:27.639Z,83.82
2018-08-27T09:18:27.764Z,83.76
2018-08-27T09:19:27.902Z,83.63
2018-08-27T09:20:28.072Z,83.53
2018-08-27T09:21:28.203Z,83.72
2018-08-27T09:22:28.341Z,84.11
2018-08-27T09:23:28.511Z,84.58
2018-08-27T09:24:28.644Z,84.78
2018-08-27T09:25:28.844Z,85.74
2018-08-27T09:26:28.856Z,85.83
2018-08-27T09:27:29.018Z,86.31
2018-08-27T09:28:29.152Z,86.79
2018-08-27T09:29:29.329Z,87.27
2018-08-27T09:30:29.453Z,86.88
2018-08-27T09:31:29.702Z,87.84
2018-08-27T09:32:29.796Z,88.13
2018-08-27T09:33:29.960Z,88.80
2018-08-27T09:34:29.969Z,89.47
2018-08-27T09:35:30.108Z,89.66
2018-08-27T09:36:30.273Z,89.28
2018-08-27T09:37:30.457Z,90.14
2018-08-27T09:38:30.599Z,90.62
2018-08-27T09:39:30.612Z,90.62
2018-08-27T09:40:30.751Z,91.86
2018-08-27T09:41:30.920Z,91.19
2018-08-27T09:42:31.030Z,91.58
2018-08-27T09:43:31.158Z,91.19
2018-08-27T09:44:31.291Z,91.29
2018-08-27T09:45:31.438Z,91.77
2018-08-27T09:46:31.574Z,91.67
2018-08-27T09:47:31.711Z,91.86
2018-08-27T09:48:31.842Z,92.35
2018-08-27T09:49:31.975Z,92.25
2018-08-27T09:50:32.116Z,93.02
2018-08-27T09:51:32.243Z,93.02
2018-08-27T09:52:32.387Z,92.06
2018-08-27T09:53:32.519Z,91.29
2018-08-27T09:54:32.659Z,91.58
2018-08-27T09:55:32.796Z,92.06
2018-08-27T09:56:32.932Z,91.96
2018-08-27T09:57:33.065Z,92.73
2018-08-27T09:58:33.235Z,93.11
2018-08-27T09:59:33.340Z,93.02
2018-08-27T10:00:33.483Z,92.92
2018-08-27T10:01:33.618Z,93.30
2018-08-27T10:02:33.751Z,92.44
2018-08-27T10:03:33.956Z,93.40
2018-08-27T10:04:34.041Z,92.73
2018-08-27T10:05:34.177Z,93.02
2018-08-27T10:06:34.325Z,93.30
2018-08-27T10:07:34.466Z,93.40
2018-08-27T10:08:34.601Z,93.02
2018-08-27T10:09:34.738Z,93.49
2018-08-27T10:10:34.876Z,93.11
2018-08-27T10:11:35.012Z,95.31
2018-08-27T10:12:35.152Z,93.78
2018-08-27T10:13:35.288Z,93.02
2018-08-27T10:14:35.424Z,93.21
2018-08-27T10:15:35.567Z,93.21
2018-08-27T10:16:35.706Z,92.73
2018-08-27T10:17:35.845Z,92.25
2018-08-27T10:18:35.984Z,92.63
2018-08-27T10:19:36.119Z,91.29
2018-08-27T10:20:36.249Z,91.96
2018-08-27T10:21:36.408Z,91.19
2018-08-27T10:22:36.571Z,91.39
2018-08-27T10:23:36.685Z,91.67
2018-08-27T10:24:36.822Z,91.96
2018-08-27T10:25:36.958Z,92.01
2018-08-27T10:26:37.110Z,91.24
2018-08-27T10:27:37.251Z,91.10
2018-08-27T10:28:37.360Z,90.33
2018-08-27T10:29:37.546Z,90.57
2018-08-27T10:30:37.640Z,90.23
2018-08-27T10:31:37.771Z,89.76
2018-08-27T10:32:37.908Z,89.86
2018-08-27T10:33:38.044Z,89.57
2018-08-27T10:34:38.188Z,90.05
2018-08-27T10:35:38.353Z,90.28
2018-08-27T10:36:38.565Z,90.38
2018-08-27T10:37:38.577Z,89.76
2018-08-27T10:38:38.714Z,89.47
2018-08-27T10:39:38.848Z,88.80
2018-08-27T10:40:38.983Z,89.18
2018-08-27T10:41:39.128Z,89.37
2018-08-27T10:42:39.291Z,89.66
2018-08-27T10:43:39.431Z,88.70
2018-08-27T10:44:39.565Z,88.70
2018-08-27T10:45:39.701Z,88.90
2018-08-27T10:46:39.862Z,88.84
2018-08-27T10:47:39.985Z,88.46
2018-08-27T10:48:40.120Z,88.08
2018-08-27T10:49:40.256Z,88.17
2018-08-27T10:50:40.405Z,88.27
2018-08-27T10:51:40.613Z,87.88
2018-08-27T10:52:40.623Z,87.02
2018-08-27T10:53:40.761Z,86.83
2018-08-27T10:54:40.897Z,86.83
2018-08-27T10:55:41.030Z,86.83
2018-08-27T10:56:41.168Z,86.93
2018-08-27T10:57:41.306Z,86.07
2018-08-27T10:58:41.444Z,87.02
2018-08-27T10:59:41.581Z,86.83
2018-08-27T11:00:41.760Z,86.83
2018-08-27T11:01:41.895Z,86.54
2018-08-27T11:02:42.058Z,86.74
2018-08-27T11:03:42.186Z,86.83
2018-08-27T11:04:42.331Z,86.83
2018-08-27T11:05:42.465Z,87.02
2018-08-27T11:06:42.622Z,87.21
2018-08-27T11:07:42.755Z,86.07
2018-08-27T11:08:42.886Z,85.97
2018-08-27T11:09:43.020Z,85.97
2018-08-27T11:10:43.210Z,86.16
2018-08-27T11:11:43.286Z,85.58
2018-08-27T11:12:43.428Z,85.78
2018-08-27T11:13:43.567Z,85.88
2018-08-27T11:14:43.736Z,85.88
2018-08-27T11:15:43.838Z,85.97
2018-08-27T11:16:43.976Z,85.97
2018-08-27T11:17:44.120Z,85.78
2018-08-27T11:18:44.294Z,85.39
2018-08-27T11:19:44.510Z,85.58
2018-08-27T11:20:44.643Z,85.21
2018-08-27T11:21:44.696Z,85.63
2018-08-27T11:22:44.856Z,85.53
2018-08-27T11:23:44.981Z,85.25
2018-08-27T11:24:45.112Z,85.82
2018-08-27T11:25:45.249Z,85.34
2018-08-27T11:26:45.533Z,85.15
2018-08-27T11:27:45.535Z,85.15
2018-08-27T11:28:45.674Z,84.86
2018-08-27T11:29:45.808Z,84.48
2018-08-27T11:30:45.960Z,84.86
2018-08-27T11:31:46.102Z,84.95
2018-08-27T11:32:46.236Z,84.58
2018-08-27T11:33:46.365Z,84.95
2018-08-27T11:34:46.508Z,84.67
2018-08-27T11:35:46.649Z,84.48
2018-08-27T11:36:46.792Z,84.38
2018-08-27T11:37:46.928Z,84.48
2018-08-27T11:38:47.069Z,84.48
2018-08-27T11:39:47.205Z,83.81
2018-08-27T11:40:47.339Z,83.91
2018-08-27T11:41:47.468Z,84.09
2018-08-27T11:42:47.602Z,83.91
2018-08-27T11:43:47.743Z,83.56
2018-08-27T11:44:47.873Z,84.38
2018-08-27T11:45:48.015Z,83.85
2018-08-27T11:46:48.146Z,83.81
2018-08-27T11:47:48.298Z,84.14
2018-08-27T11:48:48.428Z,84.23
2018-08-27T11:49:48.580Z,83.91
2018-08-27T11:50:48.833Z,83.75
2018-08-27T11:51:48.857Z,83.71
2018-08-27T11:52:48.999Z,83.94
2018-08-27T11:53:49.133Z,83.91
2018-08-27T11:54:49.275Z,83.75
2018-08-27T11:55:49.404Z,83.85
2018-08-27T11:56:49.539Z,84.19
2018-08-27T11:57:49.679Z,83.65
2018-08-27T11:58:49.820Z,83.47
2018-08-27T11:59:49.957Z,83.94
2018-08-27T12:00:50.091Z,84.33
2018-08-27T12:01:50.240Z,83.85
2018-08-27T12:02:50.379Z,83.85
2018-08-27T12:03:50.511Z,84.33
2018-08-27T12:04:50.651Z,84.52
2018-08-27T12:05:50.788Z,84.48
2018-08-27T12:06:50.915Z,84.58
2018-08-27T12:07:51.053Z,84.23
2018-08-27T12:08:51.230Z,84.48
2018-08-27T12:09:51.329Z,84.33
2018-08-27T12:10:51.505Z,84.28
2018-08-27T12:11:51.634Z,84.48
2018-08-27T12:12:51.772Z,84.42
2018-08-27T12:13:51.908Z,84.67
2018-08-27T12:14:52.082Z,84.04
2018-08-27T12:15:52.211Z,83.94
2018-08-27T12:16:52.439Z,84.61
2018-08-27T12:17:52.489Z,84.28
2018-08-27T12:18:52.633Z,84.00
2018-08-27T12:19:52.767Z,83.85
2018-08-27T12:20:52.906Z,84.04
2018-08-27T12:21:53.048Z,83.94
2018-08-27T12:22:53.190Z,84.04
2018-08-27T12:23:53.376Z,84.33
2018-08-27T12:24:53.465Z,83.85
2018-08-27T12:25:53.603Z,83.85
2018-08-27T12:26:53.758Z,84.23
2018-08-27T12:27:53.896Z,83.65
2018-08-27T12:28:54.036Z,83.94
2018-08-27T12:29:54.198Z,83.85
2018-08-27T12:30:54.375Z,83.94
2018-08-27T12:31:54.472Z,83.65
2018-08-27T12:32:54.608Z,83.47
2018-08-27T12:33:54.767Z,84.14
2018-08-27T12:34:54.881Z,83.18
2018-08-27T12:35:55.018Z,83.47
2018-08-27T12:36:55.175Z,84.14
2018-08-27T12:37:55.344Z,83.75
2018-08-27T12:38:55.449Z,82.89
2018-08-27T12:39:55.582Z,83.08
2018-08-27T12:40:55.780Z,83.27
2018-08-27T12:41:55.867Z,83.37
2018-08-27T12:42:56.005Z,83.47
2018-08-27T12:43:56.170Z,83.75
2018-08-27T12:44:56.295Z,82.79
2018-08-27T12:45:56.434Z,83.37
2018-08-27T12:46:56.572Z,83.47
2018-08-27T12:47:56.733Z,83.56
2018-08-27T12:48:56.954Z,83.94
2018-08-27T12:49:56.960Z,83.37
2018-08-27T12:50:57.217Z,83.56
2018-08-27T12:51:57.242Z,83.27
2018-08-27T12:52:57.379Z,83.56
2018-08-27T12:53:57.530Z,83.08
2018-08-27T12:54:57.668Z,82.79
2018-08-27T12:55:57.826Z,83.18